Flight Track Log - Related Links

Times and Time Zones

All times are in EDT time to prevent confusion due to time zone crossing. See the N137TK flight status page for this flight to view local times or setup timezone preferences in your user account.

Time Position Orientation Groundspeed Altitude Reporting Facility
EDT Latitude Longitude Course Direction KTS MPH feet Rate Location/Type
Sun 02:42:10 PM 28.5333 -81.3500 249° West 136 157 700  Level Orlando TRACON
Sun 02:43:11 PM 28.5167 -81.4000 249° West 183 211 1,900 1,140 Climbing Orlando TRACON
Sun 02:44:11 PM 28.4833 -81.4333 221° Southwest 196 226 3,000 550 Climbing Orlando TRACON
Sun 02:45:11 PM 28.4500 -81.4833 233° Southwest 201 231 3,000 45 Level Orlando TRACON
Sun 02:46:23 PM 28.3833 -81.5167 204° Southwest 215 247 3,100 1,091 Climbing Orlando TRACON
Sun 02:47:23 PM 28.3333 -81.5167 180° South 178 205 5,400 2,182 Climbing Orlando TRACON
Sun 02:48:24 PM 28.2833 -81.5167 180° South 178 205 7,500 2,050 Climbing Orlando TRACON
Sun 02:49:23 PM 28.2333 -81.5167 180° South 175 201 9,500 1,900 Climbing Orlando TRACON
Sun 02:50:24 PM 28.1833 -81.5167 180° South 175 201 11,300 1,304 Climbing Orlando TRACON
Sun 02:51:18 PM 28.1333 -81.5167 180° South 199 229 12,000 221 Climbing Orlando TRACON
Sun 02:53:34 PM 27.9897 -81.5028 175° South 249 287 12,000  Level Miami Center
Sun 02:54:34 PM 27.9128 -81.4950 175° South 255 293 12,000  Level Miami Center
Sun 02:55:34 PM 27.8422 -81.4875 175° South 255 293 12,000  Level Miami Center
Sun 02:56:34 PM 27.7694 -81.4797 175° South 255 293 12,000  Level Miami Center
Sun 02:57:34 PM 27.6964 -81.4744 176° South 255 293 12,000 -100 Level Miami Center
Sun 02:58:34 PM 27.6256 -81.4692 176° South 255 293 11,800 -600 Descending Miami Center
Sun 02:59:34 PM 27.5508 -81.4592 173° South 262 302 10,800 -650 Descending Miami Center
Sun 03:00:34 PM 27.4753 -81.4725 189° South 268 308 10,500 -150 Descending Miami Center
Sun 03:01:34 PM 27.4100 -81.4886 192° South 268 308 10,500  Level Miami Center
Sun 03:02:34 PM 27.3406 -81.5069 193° South 257 296 10,500 -50 Level Miami Center
Sun 03:03:34 PM 27.2714 -81.5206 190° South 257 296 10,400 -400 Descending Miami Center
Sun 03:04:34 PM 27.2017 -81.5386 193° South 257 296 9,700 -800 Descending Miami Center
Sun 03:05:34 PM 27.1281 -81.5567 192° South 262 302 8,800 -600 Descending Miami Center
Sun 03:06:34 PM 27.0547 -81.5700 189° South 267 307 8,500 -150 Descending Miami Center
Sun 03:07:34 PM 26.9894 -81.5861 192° South 252 290 8,500  Level Miami Center
Sun 03:08:34 PM 26.9222 -81.6019 192° South 247 284 8,500  Level Miami Center
Sun 03:09:34 PM 26.8547 -81.6178 192° South 247 284 8,500  Level Miami Center
Sun 03:10:34 PM 26.7917 -81.6317 191° South 252 290 8,500  Level Miami Center
Sun 03:11:34 PM 26.7097 -81.6514 192° South 266 306 8,500 -500 Level Miami Center
Sun 03:12:34 PM 26.6381 -81.6672 191° South 271 312 7,500 -1,000 Descending Miami Center
Sun 03:13:34 PM 26.5667 -81.6850 193° South 271 312 6,500 -1,000 Descending Miami Center
Sun 03:14:34 PM 26.4889 -81.7006 190° South 276 318 5,500 -1,000 Descending Miami Center
Sun 03:16:00 PM 26.3996 -81.7113 186° South  Level FlightAware Approximate
Sun 03:23:00 PM 26.1500 -81.7667 204° Southwest  Level FlightAware Approximate
Sun 03:24:00 PM 26.1524 -81.7756 204° Southwest  Level Estimated
Sun 03:25:00 PM 26.1524 -81.7756 204° Southwest  Level Estimated
Sun 03:26:00 PM 26.1524 -81.7756 204° Southwest  Level Estimated
Sun 03:27:00 PM 26.1524 -81.7756 204° Southwest  Level Estimated
Sun 03:28:00 PM 26.1524 -81.7756 204° Southwest  Level Estimated
Sun 03:29:00 PM 26.1524 -81.7756 204° Southwest  Level Estimated
Sun 03:30:00 PM 26.1524 -81.7756 204° Southwest  Level Estimated
Sun 03:31:00 PM 26.1524 -81.7756 204° Southwest  Level Estimated

Login

Don't have an account? Register now (free) for customized features, flight alerts, and more!